Time;durP1;ratioP1;P1;durP2;ratioP2;P2;SDS_P1;SDS_P2;PMS_P1;PMS_P2;Temp;Humidity;BMP_temperature;BMP_pressure;BME280_temperature;BME280_humidity;BME280_pressure;Samples;Min_cycle;Max_cycle;Signal;HPM_P1;HPM_P2
2022/05/02 00:02:01;;;;;;;6.53;5.93;;;11.70;99.90;;;;;;5085659;28;20499;-80
2022/05/02 00:04:28;;;;;;;9.17;5.70;;;11.70;99.90;;;;;;5090307;28;20447;-81
2022/05/02 00:06:54;;;;;;;5.87;4.33;;;11.70;99.90;;;;;;5094768;28;20402;-81
2022/05/02 00:09:21;;;;;;;5.83;5.00;;;11.70;99.90;;;;;;5094351;28;20494;-81
2022/05/02 00:11:48;;;;;;;5.70;4.70;;;11.50;1.00;;;;;;5091742;28;20465;-81
2022/05/02 00:14:14;;;;;;;6.10;5.30;;;11.60;99.90;;;;;;5088862;28;20446;-80
2022/05/02 00:16:43;;;;;;;6.63;5.00;;;11.70;99.90;;;;;;5087246;28;20480;-81
2022/05/02 00:19:12;;;;;;;5.87;4.47;;;11.60;99.90;;;;;;5087766;28;20445;-81
2022/05/02 00:21:38;;;;;;;5.20;4.70;;;11.60;99.90;;;;;;5086875;28;20476;-80
2022/05/02 00:24:05;;;;;;;5.80;5.13;;;11.60;99.90;;;;;;5085962;28;20445;-81
2022/05/02 00:26:32;;;;;;;5.17;4.67;;;11.60;99.90;;;;;;5086374;28;20441;-81
2022/05/02 00:28:59;;;;;;;6.57;5.30;;;11.70;99.90;;;;;;5085806;28;20448;-81
2022/05/02 00:31:25;;;;;;;5.50;4.47;;;11.60;99.90;;;;;;5083998;28;20526;-80
2022/05/02 00:33:52;;;;;;;4.83;4.43;;;11.60;99.90;;;;;;5085007;28;20489;-81
2022/05/02 00:36:20;;;;;;;5.43;4.40;;;11.60;99.90;;;;;;5085155;28;21004;-80
2022/05/02 00:38:47;;;;;;;4.40;4.03;;;11.60;99.90;;;;;;5086600;28;20456;-81
2022/05/02 00:41:15;;;;;;;5.93;5.07;;;11.60;99.90;;;;;;5086882;28;20849;-81
2022/05/02 00:43:41;;;;;;;6.57;4.70;;;11.50;99.90;;;;;;5088405;28;20479;-81
2022/05/02 00:46:18;;;;;;;4.97;4.40;;;11.60;99.90;;;;;;5088440;28;20449;-80
2022/05/02 00:48:44;;;;;;;7.00;4.80;;;11.50;99.90;;;;;;5088142;28;20432;-81
2022/05/02 00:51:11;;;;;;;5.90;5.00;;;11.90;1.00;;;;;;5087673;28;20810;-81
2022/05/02 00:53:40;;;;;;;4.63;4.23;;;11.50;99.90;;;;;;5087915;28;20449;-80
2022/05/02 00:56:07;;;;;;;4.33;3.90;;;11.60;99.90;;;;;;5086548;28;20459;-80
2022/05/02 00:58:35;;;;;;;5.10;4.10;;;11.60;99.90;;;;;;5087403;28;20540;-81
2022/05/02 01:01:02;;;;;;;6.10;4.07;;;11.70;1.00;;;;;;5087045;28;20538;-81
2022/05/02 01:03:28;;;;;;;4.83;4.30;;;11.50;99.90;;;;;;5086325;28;20444;-80
2022/05/02 01:08:41;;;;;;;6.77;4.47;;;11.50;99.90;;;;;;5095850;28;20427;-80
2022/05/02 01:11:08;;;;;;;6.90;5.17;;;11.30;1.00;;;;;;5096105;28;20471;-80
2022/05/02 01:13:37;;;;;;;4.43;3.90;;;11.50;99.90;;;;;;5095931;28;20444;-81
2022/05/02 01:16:15;;;;;;;6.47;5.57;;;11.40;99.90;;;;;;5096073;28;20474;-81
2022/05/02 01:18:42;;;;;;;6.23;4.30;;;11.50;99.90;;;;;;5089622;28;20433;-81
2022/05/02 01:21:15;;;;;;;5.13;4.10;;;11.40;1.00;;;;;;5086395;28;20457;-79
2022/05/02 01:23:42;;;;;;;6.40;4.80;;;11.50;99.90;;;;;;5086428;28;20516;-81
2022/05/02 01:26:09;;;;;;;6.70;4.50;;;11.50;99.90;;;;;;5086298;28;20412;-81
2022/05/02 01:28:42;;;;;;;6.20;4.63;;;11.50;99.90;;;;;;5083867;28;20498;-81
2022/05/02 01:31:09;;;;;;;4.73;4.27;;;11.80;1.00;;;;;;5083913;28;20425;-81
2022/05/02 01:33:36;;;;;;;6.90;4.70;;;11.40;99.90;;;;;;5084090;28;20475;-81
2022/05/02 01:36:03;;;;;;;8.10;4.40;;;11.40;99.90;;;;;;5084390;28;20476;-80
2022/05/02 01:38:31;;;;;;;4.30;3.67;;;11.80;1.00;;;;;;5083965;28;20441;-81
2022/05/02 01:40:59;;;;;;;4.07;3.60;;;11.40;1.00;;;;;;5084427;28;20440;-81
2022/05/02 01:43:26;;;;;;;9.67;5.43;;;11.40;99.90;;;;;;5086024;28;20444;-81
2022/05/02 01:45:52;;;;;;;7.00;4.07;;;11.40;1.00;;;;;;5085492;28;20445;-81
2022/05/02 01:48:19;;;;;;;4.37;3.90;;;11.30;99.90;;;;;;5084339;28;20448;-81
2022/05/02 01:50:46;;;;;;;6.60;4.30;;;11.30;99.90;;;;;;5093799;28;20448;-80
2022/05/02 01:53:12;;;;;;;4.47;4.07;;;11.20;99.90;;;;;;5092908;28;20500;-80
2022/05/02 01:55:41;;;;;;;5.57;3.80;;;11.30;99.90;;;;;;5085588;28;20502;-80
2022/05/02 01:58:08;;;;;;;4.60;4.00;;;11.30;99.90;;;;;;5095239;28;20873;-80
2022/05/02 02:00:34;;;;;;;6.57;5.30;;;11.20;99.90;;;;;;5093150;28;20516;-80
2022/05/02 02:03:01;;;;;;;4.73;4.33;;;11.30;99.90;;;;;;5091940;28;20547;-80
2022/05/02 02:08:12;;;;;;;5.27;4.30;;;11.20;99.90;;;;;;5091223;28;20375;-80
2022/05/02 02:10:40;;;;;;;6.73;4.70;;;11.20;99.90;;;;;;5088800;28;20469;-81
2022/05/02 02:13:07;;;;;;;5.97;3.97;;;11.20;99.90;;;;;;5086383;28;20465;-80
2022/05/02 02:15:34;;;;;;;5.90;4.30;;;11.20;99.90;;;;;;5087533;28;20444;-80
2022/05/02 02:18:00;;;;;;;4.57;4.17;;;11.20;99.90;;;;;;5085903;28;20506;-80
2022/05/02 02:20:27;;;;;;;7.50;5.23;;;11.10;99.90;;;;;;5089351;28;20455;-80
2022/05/02 02:22:53;;;;;;;6.90;5.27;;;11.10;99.90;;;;;;5100917;28;20498;-80
2022/05/02 02:25:20;;;;;;;5.40;4.40;;;11.60;1.00;;;;;;5100985;28;20406;-80
2022/05/02 02:27:48;;;;;;;6.63;6.00;;;11.00;99.90;;;;;;5100260;28;20451;-79
2022/05/02 02:30:16;;;;;;;6.83;5.60;;;10.90;99.90;;;;;;5099345;28;20465;-79
2022/05/02 02:32:44;;;;;;;7.93;5.60;;;10.90;99.90;;;;;;5100667;28;20544;-79
2022/05/02 02:35:10;;;;;;;8.33;5.80;;;11.00;99.90;;;;;;5099915;28;20455;-80
2022/05/02 02:37:37;;;;;;;6.20;5.60;;;10.90;99.90;;;;;;5097524;28;20480;-80
2022/05/02 02:40:04;;;;;;;7.80;5.87;;;10.80;99.90;;;;;;5095544;28;20441;-80
2022/05/02 02:42:31;;;;;;;6.77;5.73;;;10.70;1.00;;;;;;5091277;28;20465;-80
2022/05/02 02:44:59;;;;;;;6.40;5.80;;;10.70;1.00;;;;;;5089044;28;20444;-80
2022/05/02 02:47:26;;;;;;;8.67;6.10;;;10.70;1.00;;;;;;5089033;28;20447;-80
2022/05/02 02:49:52;;;;;;;5.80;5.30;;;10.70;1.00;;;;;;5089034;28;20471;-80
2022/05/02 02:52:19;;;;;;;6.23;5.67;;;10.70;1.00;;;;;;5090071;28;20518;-80
2022/05/02 02:54:45;;;;;;;10.67;5.70;;;10.70;1.00;;;;;;5088657;28;20474;-80
2022/05/02 02:57:12;;;;;;;6.93;5.03;;;10.70;1.00;;;;;;5089193;28;20447;-80
2022/05/02 02:59:39;;;;;;;6.70;5.07;;;10.70;1.00;;;;;;5090986;28;20479;-80
2022/05/02 03:02:08;;;;;;;9.30;5.30;;;10.60;1.00;;;;;;5090501;28;20480;-80
2022/05/02 03:07:20;;;;;;;8.23;5.43;;;10.50;1.00;;;;;;5090437;28;20402;-81
2022/05/02 03:09:47;;;;;;;6.67;4.90;;;10.50;1.00;;;;;;5090124;28;20428;-79
2022/05/02 03:12:14;;;;;;;7.13;4.93;;;10.50;1.00;;;;;;5093734;28;20430;-80
2022/05/02 03:14:49;;;;;;;5.43;4.60;;;10.50;1.00;;;;;;5096031;28;20206;-82
2022/05/02 03:17:17;;;;;;;5.33;4.90;;;10.40;1.00;;;;;;5095716;28;20435;-82
2022/05/02 03:19:44;;;;;;;7.13;4.40;;;10.40;1.00;;;;;;5090260;28;20960;-82
2022/05/02 03:22:11;;;;;;;6.83;5.50;;;10.30;1.00;;;;;;5087806;28;20477;-81
2022/05/02 03:24:38;;;;;;;6.23;5.57;;;10.40;1.00;;;;;;5086719;28;20963;-83
2022/05/02 03:27:06;;;;;;;7.47;5.00;;;10.20;1.00;;;;;;5087942;28;20798;-82
2022/05/02 03:29:32;;;;;;;8.53;5.83;;;10.20;1.00;;;;;;5089042;28;20452;-81
2022/05/02 03:31:59;;;;;;;6.73;5.60;;;10.10;1.00;;;;;;5090740;28;20443;-82
2022/05/02 03:34:28;;;;;;;8.17;5.20;;;10.10;1.00;;;;;;5091139;28;20522;-81
2022/05/02 03:36:54;;;;;;;6.47;5.00;;;10.10;1.00;;;;;;5091654;28;20542;-82
2022/05/02 03:39:21;;;;;;;6.20;5.10;;;10.00;1.00;;;;;;5095092;28;20432;-81
2022/05/02 03:41:49;;;;;;;7.43;5.47;;;10.00;58.80;;;;;;5098414;28;20487;-82
2022/05/02 03:44:16;;;;;;;6.80;6.20;;;9.90;1.00;;;;;;5091833;28;20898;-81
2022/05/02 03:46:42;;;;;;;6.07;5.40;;;9.80;1.00;;;;;;5098509;28;20437;-81
2022/05/02 03:49:09;;;;;;;6.70;6.00;;;9.90;1.00;;;;;;5098357;28;20416;-81
2022/05/02 03:51:37;;;;;;;6.40;5.10;;;10.10;84.70;;;;;;5094743;28;20939;-81
2022/05/02 03:54:04;;;;;;;5.93;5.40;;;10.00;1.00;;;;;;5096987;28;20199;-81
2022/05/02 03:56:31;;;;;;;8.53;5.43;;;9.90;1.00;;;;;;5095460;28;20424;-80
2022/05/02 03:58:58;;;;;;;8.47;5.20;;;10.00;1.00;;;;;;5094709;28;20404;-81
2022/05/02 04:01:24;;;;;;;8.60;5.70;;;9.90;1.00;;;;;;5094034;28;20461;-82
2022/05/02 04:03:51;;;;;;;7.00;5.53;;;9.80;99.90;;;;;;5090750;28;20534;-81
2022/05/02 04:06:18;;;;;;;7.27;4.73;;;9.90;1.00;;;;;;5087801;28;20424;-82
2022/05/02 04:08:46;;;;;;;6.10;5.33;;;10.00;1.00;;;;;;5081907;28;20472;-81
2022/05/02 04:11:13;;;;;;;9.43;5.70;;;10.10;99.90;;;;;;5081781;28;20433;-82
2022/05/02 04:13:40;;;;;;;7.10;6.40;;;10.00;1.00;;;;;;5083161;28;20444;-81
2022/05/02 04:16:06;;;;;;;8.67;5.50;;;10.00;99.90;;;;;;5083659;28;20491;-82
2022/05/02 04:18:33;;;;;;;6.20;5.70;;;10.10;1.00;;;;;;5083170;28;20459;-82
2022/05/02 04:20:59;;;;;;;6.10;5.50;;;10.70;1.00;;;;;;5084497;28;20808;-81
2022/05/02 04:23:26;;;;;;;6.17;5.23;;;10.20;1.00;;;;;;5076524;22;20494;-78
2022/05/02 04:25:54;;;;;;;8.00;6.00;;;10.20;1.00;;;;;;5055823;28;20507;-77
2022/05/02 04:28:20;;;;;;;7.87;6.43;;;10.10;1.00;;;;;;5058979;28;20442;-78
2022/05/02 04:30:47;;;;;;;8.10;5.20;;;10.10;1.00;;;;;;5061841;28;20500;-78
2022/05/02 04:33:14;;;;;;;6.47;5.53;;;10.00;99.90;;;;;;5061580;28;20462;-78
2022/05/02 04:35:40;;;;;;;10.30;5.97;;;10.20;1.00;;;;;;5063911;28;20538;-77
2022/05/02 04:38:07;;;;;;;9.87;6.60;;;10.10;1.00;;;;;;5064501;28;20493;-78
2022/05/02 04:40:33;;;;;;;10.23;6.87;;;10.20;1.00;;;;;;5066824;28;20994;-78
2022/05/02 04:43:01;;;;;;;8.23;6.07;;;10.10;1.00;;;;;;5062281;28;20556;-78
2022/05/02 04:45:28;;;;;;;8.97;6.67;;;10.10;1.00;;;;;;5062133;28;20443;-78
2022/05/02 04:47:54;;;;;;;7.70;6.30;;;10.10;1.00;;;;;;5061113;28;20520;-77
2022/05/02 04:50:21;;;;;;;11.83;6.67;;;;;;;;;;5061987;28;20424;-78
2022/05/02 04:52:48;;;;;;;8.03;6.13;;;10.10;1.00;;;;;;5061712;28;20448;-78
2022/05/02 04:55:15;;;;;;;20.77;7.93;;;10.20;1.00;;;;;;5061386;28;20457;-77
2022/05/02 04:57:42;;;;;;;6.80;5.87;;;10.30;1.00;;;;;;5059550;28;20412;-77
2022/05/02 05:00:11;;;;;;;11.47;5.20;;;10.30;99.90;;;;;;5060885;28;20454;-77
2022/05/02 05:02:38;;;;;;;7.10;6.40;;;10.30;1.00;;;;;;5062286;28;20553;-78
2022/05/02 05:05:07;;;;;;;10.67;7.00;;;10.40;1.00;;;;;;5060148;28;20489;-77
2022/05/02 05:07:33;;;;;;;17.03;6.93;;;10.40;1.00;;;;;;5061145;28;20460;-78
2022/05/02 05:10:00;;;;;;;8.47;6.07;;;10.50;1.00;;;;;;5069012;28;20607;-78
2022/05/02 05:12:38;;;;;;;6.80;5.80;;;10.50;1.00;;;;;;5071483;28;20466;-78
2022/05/02 05:18:07;;;;;;;9.03;6.37;;;10.60;1.00;;;;;;5063282;28;20432;-78
2022/05/02 05:20:42;;;;;;;9.60;6.40;;;10.60;1.00;;;;;;5058971;28;20957;-78
2022/05/02 05:23:18;;;;;;;9.30;7.00;;;10.70;1.00;;;;;;5057642;28;20527;-78
2022/05/02 05:25:59;;;;;;;7.90;5.87;;;10.70;1.00;;;;;;5058349;28;20524;-78
2022/05/02 05:28:56;;;;;;;7.93;6.27;;;10.80;1.00;;;;;;5058823;28;20830;-78
2022/05/02 05:31:35;;;;;;;9.30;7.17;;;10.10;1.00;;;;;;5052616;28;20885;-78
2022/05/02 05:34:07;;;;;;;9.00;7.00;;;10.90;1.00;;;;;;5058453;28;20468;-78
2022/05/02 05:36:42;;;;;;;8.80;7.33;;;11.10;1.00;;;;;;5057948;28;20500;-78
2022/05/02 05:39:16;;;;;;;11.37;6.87;;;10.90;1.00;;;;;;5072403;28;20404;-78
2022/05/02 05:41:54;;;;;;;7.10;6.40;;;11.00;1.00;;;;;;5068668;28;20474;-78
2022/05/02 05:44:35;;;;;;;10.20;6.43;;;11.10;1.00;;;;;;5059497;28;20430;-78
2022/05/02 05:47:25;;;;;;;5.97;5.47;;;11.20;1.00;;;;;;5061738;28;20430;-78
2022/05/02 05:50:06;;;;;;;6.03;5.40;;;11.40;1.00;;;;;;5056524;28;20460;-78
2022/05/02 05:52:46;;;;;;;10.37;6.97;;;11.40;99.90;;;;;;5056523;28;20462;-78
2022/05/02 05:55:18;;;;;;;9.77;6.10;;;11.40;99.90;;;;;;5057059;28;20404;-78
2022/05/02 05:57:50;;;;;;;6.37;5.73;;;11.30;99.90;;;;;;5067134;28;20396;-78
2022/05/02 06:00:18;;;;;;;6.17;5.67;;;11.40;99.90;;;;;;5061280;28;20851;-78
2022/05/02 06:02:55;;;;;;;8.32;5.85;;;11.50;1.00;;;;;;5060922;28;20778;-79
2022/05/02 06:05:24;;;;;;;10.77;6.03;;;11.60;99.90;;;;;;5060106;28;20440;-78
2022/05/02 06:07:52;;;;;;;15.10;6.80;;;11.60;99.90;;;;;;5060625;28;20227;-78
2022/05/02 06:10:19;;;;;;;5.40;4.70;;;11.70;99.90;;;;;;5059291;28;20940;-79
2022/05/02 06:12:47;;;;;;;6.10;5.03;;;11.90;99.90;;;;;;5059592;28;20507;-79
2022/05/02 06:20:53;;;;;;;11.23;5.35;;;12.00;99.90;;;;;;5059420;28;20419;-77
2022/05/02 06:23:19;;;;;;;7.07;5.20;;;12.10;99.90;;;;;;5062904;28;20326;-77
2022/05/02 06:25:49;;;;;;;10.20;5.50;;;12.20;99.90;;;;;;5068815;28;20449;-78
2022/05/02 06:28:17;;;;;;;7.20;4.53;;;12.30;99.90;;;;;;5065950;28;20462;-77
2022/05/02 06:30:44;;;;;;;7.40;4.73;;;12.40;99.90;;;;;;5061091;28;20434;-79
2022/05/02 06:33:13;;;;;;;7.57;4.87;;;12.40;99.90;;;;;;5061335;28;20508;-78
2022/05/02 06:35:52;;;;;;;5.47;4.97;;;12.40;99.90;;;;;;5062195;28;20439;-78
2022/05/02 06:38:32;;;;;;;7.80;7.03;;;12.40;99.90;;;;;;5060483;28;20430;-78
2022/05/02 06:41:10;;;;;;;38.23;22.70;;;12.60;99.90;;;;;;5065606;28;20427;-79
2022/05/02 06:43:46;;;;;;;6.40;4.90;;;12.80;99.90;;;;;;5074059;28;20463;-78
2022/05/02 06:46:19;;;;;;;7.23;4.63;;;12.90;1.00;;;;;;5069429;28;20434;-77
2022/05/02 06:48:49;;;;;;;5.87;4.90;;;12.80;99.90;;;;;;5066531;28;20464;-77
2022/05/02 06:51:21;;;;;;;3.97;3.40;;;12.80;99.90;;;;;;5062112;28;20435;-77
2022/05/02 06:54:24;;;;;;;4.43;4.03;;;13.00;99.90;;;;;;5061361;28;20486;-79
2022/05/02 06:56:56;;;;;;;5.00;4.50;;;12.80;1.00;;;;;;5059587;28;20462;-79
2022/05/02 06:59:39;;;;;;;8.57;4.33;;;13.20;99.90;;;;;;5060760;28;20426;-79
2022/05/02 07:02:19;;;;;;;8.90;5.37;;;13.20;99.90;;;;;;5059675;28;20509;-79
2022/05/02 07:04:51;;;;;;;6.70;4.13;;;13.20;99.90;;;;;;5058884;28;20464;-78
2022/05/02 07:07:44;;;;;;;7.67;4.30;;;13.70;1.00;;;;;;5057464;28;20850;-78
2022/05/02 07:10:18;;;;;;;6.17;4.60;;;13.40;99.90;;;;;;5056222;28;20472;-77
2022/05/02 07:12:54;;;;;;;4.83;4.30;;;13.20;1.00;;;;;;5056475;28;20506;-78
2022/05/02 07:15:24;;;;;;;6.23;4.83;;;13.40;99.90;;;;;;5056749;28;20459;-78
2022/05/02 07:18:01;;;;;;;9.70;4.73;;;13.40;99.90;;;;;;5057650;28;20431;-78
2022/05/02 07:20:32;;;;;;;6.10;5.27;;;13.50;99.90;;;;;;5057246;28;20528;-78
2022/05/02 07:23:18;;;;;;;5.20;4.77;;;13.70;99.90;;;;;;5056307;28;20506;-79
2022/05/02 07:25:51;;;;;;;12.00;5.07;;;14.00;99.90;;;;;;5057869;28;20537;-78
2022/05/02 07:28:28;;;;;;;17.73;6.53;;;14.00;99.90;;;;;;5056478;28;20906;-78
2022/05/02 07:30:57;;;;;;;5.87;4.33;;;13.90;99.90;;;;;;5057007;28;20462;-79
2022/05/02 07:33:29;;;;;;;7.07;4.20;;;13.80;99.90;;;;;;5056809;28;20463;-78
2022/05/02 07:35:57;;;;;;;7.93;4.83;;;13.90;99.90;;;;;;5056931;28;20500;-79
2022/05/02 07:38:25;;;;;;;7.20;5.03;;;14.10;99.90;;;;;;5056581;28;20477;-86
2022/05/02 07:43:40;;;;;;;6.67;6.00;;;14.00;99.90;;;;;;5056737;28;20445;-79
2022/05/02 07:46:09;;;;;;;5.23;4.73;;;14.70;99.90;;;;;;5057095;28;20477;-78
2022/05/02 07:48:41;;;;;;;5.73;5.23;;;14.50;99.90;;;;;;5057824;28;20488;-78
2022/05/02 07:51:10;;;;;;;13.97;9.30;;;14.70;99.90;;;;;;5058370;28;20535;-78
2022/05/02 07:53:41;;;;;;;8.63;6.40;;;14.80;99.90;;;;;;5056106;28;20454;-78
2022/05/02 07:56:10;;;;;;;8.47;5.17;;;14.60;99.90;;;;;;5057058;28;20429;-78
2022/05/02 07:58:41;;;;;;;5.40;4.90;;;14.30;1.00;;;;;;5058387;28;20440;-79
2022/05/02 08:01:07;;;;;;;7.47;4.53;;;14.50;99.90;;;;;;5060329;28;20440;-77
2022/05/02 08:03:34;;;;;;;11.07;5.30;;;14.60;99.90;;;;;;5062789;28;20496;-78
2022/05/02 08:06:15;;;;;;;7.23;4.90;;;14.80;99.90;;;;;;5063675;28;20455;-78
2022/05/02 08:08:49;;;;;;;6.77;6.07;;;15.00;99.90;;;;;;5059563;28;20469;-78
2022/05/02 08:11:23;;;;;;;4.70;3.80;;;15.20;99.90;;;;;;5059496;28;20437;-78
2022/05/02 08:13:58;;;;;;;5.47;4.70;;;15.30;99.90;;;;;;5061869;28;20434;-78
2022/05/02 08:16:26;;;;;;;7.30;5.30;;;15.10;99.90;;;;;;5062608;28;20537;-78
2022/05/02 08:19:03;;;;;;;12.10;5.70;;;14.80;99.90;;;;;;5059592;28;20445;-79
2022/05/02 08:21:35;;;;;;;7.90;4.70;;;15.00;1.00;;;;;;5057843;28;20429;-79
2022/05/02 08:27:19;;;;;;;8.27;5.13;;;15.10;99.90;;;;;;5063413;28;20909;-78
2022/05/02 08:30:08;;;;;;;5.63;4.03;;;15.30;99.90;;;;;;5059174;28;20580;-78
2022/05/02 08:32:41;;;;;;;10.77;5.43;;;15.30;99.90;;;;;;5057628;28;20506;-78
2022/05/02 08:35:10;;;;;;;6.63;6.03;;;15.30;99.90;;;;;;5056396;28;20433;-78
2022/05/02 08:37:58;;;;;;;5.30;3.67;;;15.20;99.90;;;;;;5057455;28;20442;-78
2022/05/02 08:40:52;;;;;;;6.97;5.00;;;15.30;99.90;;;;;;5057766;28;20791;-79
2022/05/02 08:43:42;;;;;;;9.40;4.93;;;15.20;99.90;;;;;;5058118;28;20517;-78
2022/05/02 08:46:42;;;;;;;6.47;4.53;;;15.00;1.00;;;;;;5059789;28;20449;-79
2022/05/02 08:49:44;;;;;;;10.67;6.10;;;15.40;99.90;;;;;;5058980;28;20560;-79
2022/05/02 08:52:47;;;;;;;6.40;4.83;;;15.50;99.90;;;;;;5057513;28;20544;-79
2022/05/02 08:55:40;;;;;;;7.10;4.70;;;15.20;99.90;;;;;;5061921;28;20434;-79
2022/05/02 08:58:42;;;;;;;8.10;4.97;;;15.10;99.90;;;;;;5058081;28;20880;-77
2022/05/02 09:01:40;;;;;;;6.60;4.97;;;15.30;99.90;;;;;;5062464;28;20437;-78
2022/05/02 09:04:38;;;;;;;4.93;4.53;;;15.60;99.90;;;;;;5056462;28;20553;-77
2022/05/02 09:07:39;;;;;;;6.30;5.20;;;15.80;99.90;;;;;;5067402;28;20456;-77
2022/05/02 09:10:11;;;;;;;7.67;4.50;;;15.50;99.90;;;;;;5060628;28;20660;-78
2022/05/02 09:13:00;;;;;;;7.77;5.23;;;15.50;99.90;;;;;;5057528;28;20477;-78
2022/05/02 09:15:57;;;;;;;5.03;4.07;;;15.70;99.90;;;;;;5056471;28;20508;-79
2022/05/02 09:18:52;;;;;;;6.60;5.43;;;15.70;99.90;;;;;;5055937;28;20441;-78
2022/05/02 09:21:28;;;;;;;25.80;19.07;;;15.60;99.90;;;;;;5048861;28;20454;-79
2022/05/02 09:24:29;;;;;;;9.47;5.83;;;15.60;99.90;;;;;;5056454;28;20440;-78
2022/05/02 09:27:15;;;;;;;8.80;5.40;;;15.80;99.90;;;;;;5055334;28;20533;-78
2022/05/02 09:30:14;;;;;;;7.20;5.57;;;15.90;99.90;;;;;;5056915;28;20952;-79
2022/05/02 09:33:03;;;;;;;6.70;6.00;;;15.80;99.90;;;;;;5060843;28;20878;-78
2022/05/02 09:35:33;;;;;;;10.87;6.30;;;15.70;99.90;;;;;;5061361;28;20465;-79
2022/05/02 09:38:04;;;;;;;7.10;6.40;;;15.90;99.90;;;;;;5060801;28;20535;-79
2022/05/02 09:40:36;;;;;;;18.30;5.90;;;15.80;99.90;;;;;;5060420;28;20491;-79
2022/05/02 09:49:33;;;;;;;8.77;4.70;;;15.70;99.90;;;;;;5068748;28;20559;-79
2022/05/02 09:49:39;;;;;;;6.47;3.93;;;16.00;99.90;;;;;;5061430;28;20457;-79
2022/05/02 09:52:12;;;;;;;6.80;5.60;;;16.20;99.90;;;;;;5059907;28;20496;-78
2022/05/02 09:57:58;;;;;;;8.60;6.00;;;16.30;99.90;;;;;;5059826;28;20428;-79
2022/05/02 10:03:24;;;;;;;11.33;7.00;;;16.80;99.90;;;;;;5059126;28;20441;-78
2022/05/02 10:06:01;;;;;;;7.80;5.95;;;16.90;99.90;;;;;;5059398;28;20489;-78
2022/05/02 10:08:44;;;;;;;5.57;5.03;;;16.90;99.90;;;;;;5058992;28;20456;-78
2022/05/02 10:11:17;;;;;;;8.40;6.50;;;16.70;99.90;;;;;;5060189;28;20184;-78
2022/05/02 10:13:53;;;;;;;11.63;6.87;;;16.70;99.90;;;;;;5058600;28;20446;-78
2022/05/02 10:16:33;;;;;;;14.93;7.20;;;16.60;99.90;;;;;;5058453;28;20437;-79
2022/05/02 10:19:15;;;;;;;10.67;6.97;;;16.60;99.90;;;;;;5058095;28;20512;-78
2022/05/02 11:12:34;;;;;;;8.43;6.70;;;18.00;99.90;;;;;;4943110;29;20439;-80
2022/05/02 11:16:05;;;;;;;11.10;6.53;;;17.70;99.90;;;;;;4893868;29;20506;-81
2022/05/02 11:30:05;;;;;;;7.00;5.77;;;17.90;99.90;;;;;;4835546;29;20441;-81
2022/05/02 12:01:26;;;;;;;;;;;;;;;;;;;;;
2022/05/02 12:03:55;;;;;;;6.63;6.03;;;18.40;99.90;;;;;;5044516;22;20585;-77
2022/05/02 12:06:31;;;;;;;6.97;6.27;;;18.60;99.90;;;;;;5057576;28;20484;-78
2022/05/02 12:09:03;;;;;;;8.03;7.20;;;18.70;99.90;;;;;;5056681;28;20784;-78
2022/05/02 12:11:30;;;;;;;5.80;5.20;;;;;;;;;;5059427;28;20429;-77
2022/05/02 12:14:01;;;;;;;7.07;6.40;;;18.40;99.90;;;;;;5062959;28;20466;-78
2022/05/02 12:16:33;;;;;;;7.90;7.20;;;18.60;99.90;;;;;;5063170;28;20430;-77
2022/05/02 12:19:03;;;;;;;8.90;5.97;;;19.00;99.90;;;;;;5058899;28;20465;-79
2022/05/02 12:21:36;;;;;;;7.67;6.60;;;19.00;99.90;;;;;;5058738;28;20864;-78
2022/05/02 12:24:04;;;;;;;8.33;6.40;;;19.00;99.90;;;;;;5057258;28;20461;-79
2022/05/02 12:26:33;;;;;;;7.90;7.03;;;19.00;99.90;;;;;;5058630;28;20461;-79
2022/05/02 12:29:12;;;;;;;7.03;5.70;;;19.20;99.90;;;;;;5062881;28;20464;-78
2022/05/02 12:31:41;;;;;;;6.27;5.67;;;18.70;99.90;;;;;;5059601;28;20425;-78
2022/05/02 12:34:11;;;;;;;6.37;5.53;;;19.00;99.90;;;;;;5058337;28;20549;-77
2022/05/02 12:36:50;;;;;;;9.13;5.90;;;19.10;99.90;;;;;;5060053;28;20457;-78
2022/05/02 12:39:19;;;;;;;7.47;6.77;;;19.10;99.90;;;;;;5059418;28;20470;-79
2022/05/02 12:41:48;;;;;;;7.43;6.60;;;18.40;99.90;;;;;;5059605;28;20488;-79
2022/05/02 12:44:18;;;;;;;7.13;5.80;;;18.60;99.90;;;;;;5061113;28;20484;-79
2022/05/02 12:46:46;;;;;;;6.30;5.70;;;18.70;1.00;;;;;;5059260;28;20838;-78
2022/05/02 12:49:21;;;;;;;8.63;6.63;;;18.50;99.90;;;;;;5059020;28;20508;-80
2022/05/02 12:51:52;;;;;;;7.77;5.83;;;18.60;99.90;;;;;;5058088;28;20461;-78
2022/05/02 12:54:21;;;;;;;7.70;5.50;;;18.60;99.90;;;;;;5061563;28;20469;-80
2022/05/02 13:00:30;;;;;;;5.73;5.23;;;19.00;99.90;;;;;;5066112;28;20453;-78
2022/05/02 13:02:35;;;;;;;7.00;5.60;;;19.20;99.90;;;;;;5060429;28;20468;-77
2022/05/02 13:05:06;;;;;;;6.23;5.63;;;19.10;99.90;;;;;;5060024;28;20484;-78
2022/05/02 13:07:43;;;;;;;6.20;5.37;;;19.20;99.90;;;;;;5057781;28;20487;-79
2022/05/02 13:10:16;;;;;;;6.83;4.33;;;19.40;99.90;;;;;;5059393;28;20866;-78
2022/05/02 13:12:55;;;;;;;5.63;5.13;;;19.50;99.90;;;;;;5057352;28;20472;-78
2022/05/02 13:15:27;;;;;;;5.30;4.53;;;19.60;99.90;;;;;;5060862;28;20426;-77
2022/05/02 13:17:58;;;;;;;8.37;4.80;;;19.30;99.90;;;;;;5067103;28;20452;-78
2022/05/02 13:20:27;;;;;;;7.67;5.30;;;19.00;99.90;;;;;;5069826;28;20492;-77
2022/05/02 13:23:03;;;;;;;7.80;5.60;;;19.30;1.00;;;;;;5075685;28;20470;-78
2022/05/02 13:26:00;;;;;;;7.10;4.80;;;19.10;99.90;;;;;;5071115;28;20429;-77
2022/05/02 13:28:35;;;;;;;8.10;4.70;;;19.10;99.90;;;;;;5063673;28;20430;-77
2022/05/02 13:31:13;;;;;;;6.80;4.37;;;19.30;99.90;;;;;;5061755;28;20792;-77
2022/05/02 13:33:49;;;;;;;7.27;5.60;;;19.40;99.90;;;;;;5060050;28;20458;-80
2022/05/02 13:36:16;;;;;;;5.30;4.53;;;19.20;99.90;;;;;;5057835;28;20425;-78
2022/05/02 13:38:50;;;;;;;5.60;4.17;;;19.20;99.90;;;;;;5057905;28;20449;-78
2022/05/02 13:41:29;;;;;;;5.07;4.53;;;19.30;99.90;;;;;;5057205;28;20462;-78
2022/05/02 13:44:07;;;;;;;5.10;4.70;;;19.30;99.90;;;;;;5056453;28;20500;-78
2022/05/02 13:46:53;;;;;;;8.17;5.57;;;19.50;99.90;;;;;;5057631;28;20436;-78
2022/05/02 13:49:32;;;;;;;6.80;5.30;;;19.40;99.90;;;;;;5063056;28;20509;-78
2022/05/02 13:52:16;;;;;;;6.30;4.60;;;19.50;1.00;;;;;;5057590;28;20437;-78
2022/05/02 13:54:49;;;;;;;7.70;6.00;;;19.30;99.90;;;;;;5057525;28;20461;-79
2022/05/02 13:57:21;;;;;;;7.13;5.23;;;19.60;99.90;;;;;;5057304;28;20737;-79
2022/05/02 13:59:57;;;;;;;5.30;4.80;;;19.70;1.00;;;;;;5055476;28;20552;-78
2022/05/02 14:02:54;;;;;;;5.10;4.53;;;19.60;99.90;;;;;;5055502;28;20482;-78
2022/05/02 14:05:30;;;;;;;6.07;5.30;;;19.70;99.90;;;;;;5056237;28;20456;-79
2022/05/02 14:07:59;;;;;;;5.10;4.57;;;19.80;99.90;;;;;;5056464;28;20422;-79
2022/05/02 14:10:28;;;;;;;5.27;4.33;;;19.80;99.90;;;;;;5055413;28;20437;-78
2022/05/02 14:12:55;;;;;;;6.10;5.50;;;19.50;99.90;;;;;;5056109;28;20469;-77
2022/05/02 14:15:23;;;;;;;5.83;5.20;;;19.60;99.90;;;;;;5056775;28;20496;-79
2022/05/02 14:17:55;;;;;;;4.50;4.20;;;19.70;99.90;;;;;;5061493;28;20453;-78
2022/05/02 14:20:23;;;;;;;7.10;6.07;;;19.70;99.90;;;;;;5059384;28;20474;-79
2022/05/02 14:22:56;;;;;;;8.83;6.67;;;19.80;99.90;;;;;;5063710;28;20469;-77
2022/05/02 14:25:26;;;;;;;6.60;6.00;;;19.70;99.90;;;;;;5070444;28;20799;-78
2022/05/02 14:27:55;;;;;;;9.73;6.00;;;19.50;99.90;;;;;;5067928;28;20564;-77
2022/05/02 14:30:25;;;;;;;9.10;6.00;;;19.30;99.90;;;;;;5065293;28;20460;-79
2022/05/02 14:32:55;;;;;;;7.30;6.57;;;19.10;99.90;;;;;;5068107;28;20518;-77
2022/05/02 14:35:23;;;;;;;6.40;5.83;;;19.00;99.90;;;;;;5070762;28;20450;-78
2022/05/02 14:37:52;;;;;;;6.87;5.27;;;18.90;99.90;;;;;;5072512;28;20441;-78
2022/05/02 14:40:19;;;;;;;6.07;5.57;;;18.60;99.90;;;;;;5069099;28;20512;-77
2022/05/02 14:42:46;;;;;;;5.30;4.40;;;18.80;99.90;;;;;;5066587;28;20468;-78
2022/05/02 14:45:13;;;;;;;5.53;4.73;;;18.80;99.90;;;;;;5071263;28;20446;-78
2022/05/02 14:47:41;;;;;;;7.77;4.97;;;18.70;99.90;;;;;;5068171;28;20479;-78
2022/05/02 14:50:10;;;;;;;6.13;5.23;;;18.70;99.90;;;;;;5064965;28;20456;-78
2022/05/02 14:52:37;;;;;;;6.63;4.93;;;18.50;99.90;;;;;;5064809;28;20552;-79
2022/05/02 14:55:06;;;;;;;6.70;5.00;;;18.60;99.90;;;;;;5062581;28;20967;-79
2022/05/02 14:57:33;;;;;;;6.87;5.37;;;;;;;;;;5064713;28;20472;-80
2022/05/02 15:00:04;;;;;;;9.90;5.13;;;18.90;99.90;;;;;;5062069;28;20569;-77
2022/05/02 15:02:34;;;;;;;6.07;5.57;;;18.90;99.90;;;;;;5064176;28;20456;-80
2022/05/02 15:05:04;;;;;;;6.57;5.97;;;19.10;99.90;;;;;;5066353;28;20454;-78
2022/05/02 15:07:50;;;;;;;4.77;4.37;;;19.10;99.90;;;;;;5063577;28;20450;-79
2022/05/02 15:10:35;;;;;;;6.27;5.67;;;19.20;99.90;;;;;;5064134;28;20426;-79
2022/05/02 15:13:24;;;;;;;5.45;4.95;;;19.00;99.90;;;;;;5068419;28;20442;-78
2022/05/02 15:15:53;;;;;;;4.40;4.10;;;18.90;99.90;;;;;;5067040;28;20216;-78
2022/05/02 15:22:07;;;;;;;4.80;4.40;;;18.90;99.90;;;;;;5061900;28;20596;-79
2022/05/02 15:24:53;;;;;;;8.15;5.15;;;19.00;99.90;;;;;;5059622;28;20834;-78
2022/05/02 15:36:39;;;;;;;5.73;4.83;;;19.00;99.90;;;;;;5061427;28;20196;-78
2022/05/02 15:38:48;;;;;;;11.17;5.30;;;19.30;99.90;;;;;;5058858;28;20651;-79